sensor_id;sensor_type;location;lat;lon;timestamp;P1;durP1;ratioP1;P2;durP2;ratioP2
6205;SDS011;3136;48.788;9.772;2023-02-21T00:02:38;9.87;;;4.30;;
6205;SDS011;3136;48.788;9.772;2023-02-21T00:05:22;6.87;;;4.20;;
6205;SDS011;3136;48.788;9.772;2023-02-21T00:08:06;5.63;;;4.03;;
6205;SDS011;3136;48.788;9.772;2023-02-21T00:10:50;8.37;;;4.00;;
6205;SDS011;3136;48.788;9.772;2023-02-21T00:13:35;4.80;;;3.50;;
6205;SDS011;3136;48.788;9.772;2023-02-21T00:16:19;9.37;;;4.27;;
6205;SDS011;3136;48.788;9.772;2023-02-21T00:19:03;7.87;;;4.83;;
6205;SDS011;3136;48.788;9.772;2023-02-21T00:21:48;6.53;;;4.57;;
6205;SDS011;3136;48.788;9.772;2023-02-21T00:24:32;8.40;;;4.67;;
6205;SDS011;3136;48.788;9.772;2023-02-21T00:27:16;9.43;;;4.73;;
6205;SDS011;3136;48.788;9.772;2023-02-21T00:30:00;7.47;;;4.57;;
6205;SDS011;3136;48.788;9.772;2023-02-21T00:32:44;8.00;;;4.63;;
6205;SDS011;3136;48.788;9.772;2023-02-21T00:35:28;9.20;;;4.23;;
6205;SDS011;3136;48.788;9.772;2023-02-21T00:38:12;7.17;;;4.40;;
6205;SDS011;3136;48.788;9.772;2023-02-21T00:40:56;10.13;;;4.43;;
6205;SDS011;3136;48.788;9.772;2023-02-21T00:43:40;6.47;;;3.97;;
6205;SDS011;3136;48.788;9.772;2023-02-21T00:46:24;8.80;;;4.30;;
6205;SDS011;3136;48.788;9.772;2023-02-21T00:49:08;7.33;;;4.13;;
6205;SDS011;3136;48.788;9.772;2023-02-21T00:51:52;7.07;;;4.53;;
6205;SDS011;3136;48.788;9.772;2023-02-21T00:54:36;7.23;;;4.33;;
6205;SDS011;3136;48.788;9.772;2023-02-21T00:57:20;7.67;;;4.27;;
6205;SDS011;3136;48.788;9.772;2023-02-21T01:00:16;7.70;;;4.30;;
6205;SDS011;3136;48.788;9.772;2023-02-21T01:03:04;7.53;;;4.30;;
6205;SDS011;3136;48.788;9.772;2023-02-21T01:05:51;8.10;;;4.60;;
6205;SDS011;3136;48.788;9.772;2023-02-21T01:08:36;7.23;;;4.23;;
6205;SDS011;3136;48.788;9.772;2023-02-21T01:11:23;8.47;;;4.03;;
6205;SDS011;3136;48.788;9.772;2023-02-21T01:14:07;7.40;;;4.40;;
6205;SDS011;3136;48.788;9.772;2023-02-21T01:16:51;10.77;;;4.13;;
6205;SDS011;3136;48.788;9.772;2023-02-21T01:19:36;6.77;;;3.80;;
6205;SDS011;3136;48.788;9.772;2023-02-21T01:22:20;7.33;;;4.23;;
6205;SDS011;3136;48.788;9.772;2023-02-21T01:25:04;6.17;;;4.10;;
6205;SDS011;3136;48.788;9.772;2023-02-21T01:27:49;5.90;;;4.00;;
6205;SDS011;3136;48.788;9.772;2023-02-21T01:30:33;6.87;;;4.07;;
6205;SDS011;3136;48.788;9.772;2023-02-21T01:33:17;6.67;;;4.10;;
6205;SDS011;3136;48.788;9.772;2023-02-21T01:36:03;6.10;;;4.50;;
6205;SDS011;3136;48.788;9.772;2023-02-21T01:38:48;9.67;;;4.67;;
6205;SDS011;3136;48.788;9.772;2023-02-21T01:41:32;8.43;;;4.73;;
6205;SDS011;3136;48.788;9.772;2023-02-21T01:47:20;8.57;;;4.80;;
6205;SDS011;3136;48.788;9.772;2023-02-21T01:50:08;6.77;;;4.20;;
6205;SDS011;3136;48.788;9.772;2023-02-21T01:53:08;9.60;;;4.83;;
6205;SDS011;3136;48.788;9.772;2023-02-21T01:55:55;8.40;;;4.80;;
6205;SDS011;3136;48.788;9.772;2023-02-21T01:58:41;6.87;;;4.40;;
6205;SDS011;3136;48.788;9.772;2023-02-21T02:01:38;9.17;;;5.13;;
6205;SDS011;3136;48.788;9.772;2023-02-21T02:04:29;10.00;;;5.73;;
6205;SDS011;3136;48.788;9.772;2023-02-21T02:07:14;9.50;;;5.57;;
6205;SDS011;3136;48.788;9.772;2023-02-21T02:09:58;9.90;;;5.47;;
6205;SDS011;3136;48.788;9.772;2023-02-21T02:13:02;13.03;;;5.70;;
6205;SDS011;3136;48.788;9.772;2023-02-21T02:15:51;8.53;;;4.80;;
6205;SDS011;3136;48.788;9.772;2023-02-21T02:18:47;11.10;;;5.17;;
6205;SDS011;3136;48.788;9.772;2023-02-21T02:21:32;12.77;;;5.47;;
6205;SDS011;3136;48.788;9.772;2023-02-21T02:26:46;9.03;;;5.03;;
6205;SDS011;3136;48.788;9.772;2023-02-21T02:29:38;10.33;;;5.23;;
6205;SDS011;3136;48.788;9.772;2023-02-21T02:35:08;11.80;;;5.60;;
6205;SDS011;3136;48.788;9.772;2023-02-21T02:40:27;9.47;;;5.60;;
6205;SDS011;3136;48.788;9.772;2023-02-21T02:45:45;8.63;;;4.97;;
6205;SDS011;3136;48.788;9.772;2023-02-21T02:48:31;10.57;;;5.43;;
6205;SDS011;3136;48.788;9.772;2023-02-21T02:50:57;9.23;;;5.07;;
6205;SDS011;3136;48.788;9.772;2023-02-21T02:53:27;8.60;;;5.23;;
6205;SDS011;3136;48.788;9.772;2023-02-21T02:56:04;9.03;;;4.77;;
6205;SDS011;3136;48.788;9.772;2023-02-21T02:58:35;8.57;;;4.90;;
6205;SDS011;3136;48.788;9.772;2023-02-21T03:01:45;9.23;;;5.30;;
6205;SDS011;3136;48.788;9.772;2023-02-21T03:07:01;10.50;;;5.77;;
6205;SDS011;3136;48.788;9.772;2023-02-21T03:15:14;9.13;;;5.23;;
6205;SDS011;3136;48.788;9.772;2023-02-21T03:18:02;11.33;;;5.10;;
6205;SDS011;3136;48.788;9.772;2023-02-21T03:20:41;8.40;;;5.10;;
6205;SDS011;3136;48.788;9.772;2023-02-21T03:23:08;8.00;;;5.40;;
6205;SDS011;3136;48.788;9.772;2023-02-21T03:25:37;8.80;;;5.60;;
6205;SDS011;3136;48.788;9.772;2023-02-21T03:28:05;9.00;;;5.10;;
6205;SDS011;3136;48.788;9.772;2023-02-21T03:30:30;9.43;;;5.40;;
6205;SDS011;3136;48.788;9.772;2023-02-21T03:32:56;11.07;;;5.40;;
6205;SDS011;3136;48.788;9.772;2023-02-21T03:35:22;7.43;;;4.87;;
6205;SDS011;3136;48.788;9.772;2023-02-21T03:37:53;7.67;;;4.20;;
6205;SDS011;3136;48.788;9.772;2023-02-21T03:40:20;8.47;;;4.60;;
6205;SDS011;3136;48.788;9.772;2023-02-21T03:42:51;8.90;;;5.10;;
6205;SDS011;3136;48.788;9.772;2023-02-21T03:45:18;10.60;;;4.83;;
6205;SDS011;3136;48.788;9.772;2023-02-21T03:47:44;7.40;;;4.77;;
6205;SDS011;3136;48.788;9.772;2023-02-21T03:50:10;8.77;;;4.70;;
6205;SDS011;3136;48.788;9.772;2023-02-21T03:52:35;11.93;;;4.83;;
6205;SDS011;3136;48.788;9.772;2023-02-21T03:55:02;8.73;;;4.33;;
6205;SDS011;3136;48.788;9.772;2023-02-21T03:57:28;9.60;;;4.43;;
6205;SDS011;3136;48.788;9.772;2023-02-21T03:59:53;9.10;;;4.83;;
6205;SDS011;3136;48.788;9.772;2023-02-21T04:02:19;9.27;;;4.43;;
6205;SDS011;3136;48.788;9.772;2023-02-21T04:04:45;9.33;;;4.67;;
6205;SDS011;3136;48.788;9.772;2023-02-21T04:07:12;11.90;;;4.87;;
6205;SDS011;3136;48.788;9.772;2023-02-21T04:09:42;10.20;;;5.60;;
6205;SDS011;3136;48.788;9.772;2023-02-21T04:12:08;8.30;;;4.93;;
6205;SDS011;3136;48.788;9.772;2023-02-21T04:14:34;8.80;;;4.63;;
6205;SDS011;3136;48.788;9.772;2023-02-21T04:16:59;7.67;;;4.60;;
6205;SDS011;3136;48.788;9.772;2023-02-21T04:19:25;7.93;;;4.50;;
6205;SDS011;3136;48.788;9.772;2023-02-21T04:21:51;11.97;;;4.77;;
6205;SDS011;3136;48.788;9.772;2023-02-21T04:24:16;8.10;;;4.70;;
6205;SDS011;3136;48.788;9.772;2023-02-21T04:26:42;9.13;;;4.57;;
6205;SDS011;3136;48.788;9.772;2023-02-21T04:29:07;8.27;;;4.93;;
6205;SDS011;3136;48.788;9.772;2023-02-21T04:31:33;6.20;;;4.70;;
6205;SDS011;3136;48.788;9.772;2023-02-21T04:33:59;10.40;;;4.90;;
6205;SDS011;3136;48.788;9.772;2023-02-21T04:36:25;7.13;;;4.67;;
6205;SDS011;3136;48.788;9.772;2023-02-21T04:38:51;9.63;;;4.70;;
6205;SDS011;3136;48.788;9.772;2023-02-21T04:41:18;9.27;;;4.77;;
6205;SDS011;3136;48.788;9.772;2023-02-21T04:43:44;9.00;;;5.10;;
6205;SDS011;3136;48.788;9.772;2023-02-21T04:46:10;9.30;;;4.87;;
6205;SDS011;3136;48.788;9.772;2023-02-21T04:48:40;7.97;;;4.60;;
6205;SDS011;3136;48.788;9.772;2023-02-21T04:51:10;10.47;;;4.87;;
6205;SDS011;3136;48.788;9.772;2023-02-21T04:53:36;8.97;;;4.83;;
6205;SDS011;3136;48.788;9.772;2023-02-21T04:56:01;9.70;;;5.50;;
6205;SDS011;3136;48.788;9.772;2023-02-21T04:58:28;10.10;;;5.40;;
6205;SDS011;3136;48.788;9.772;2023-02-21T05:00:53;8.47;;;5.43;;
6205;SDS011;3136;48.788;9.772;2023-02-21T05:03:19;9.63;;;5.30;;
6205;SDS011;3136;48.788;9.772;2023-02-21T05:05:45;10.83;;;4.70;;
6205;SDS011;3136;48.788;9.772;2023-02-21T05:08:11;11.10;;;5.20;;
6205;SDS011;3136;48.788;9.772;2023-02-21T05:10:37;7.83;;;5.00;;
6205;SDS011;3136;48.788;9.772;2023-02-21T05:13:02;11.27;;;5.40;;
6205;SDS011;3136;48.788;9.772;2023-02-21T05:15:28;6.93;;;5.13;;
6205;SDS011;3136;48.788;9.772;2023-02-21T05:17:53;10.27;;;5.20;;
6205;SDS011;3136;48.788;9.772;2023-02-21T05:20:19;8.53;;;4.80;;
6205;SDS011;3136;48.788;9.772;2023-02-21T05:22:45;9.37;;;5.27;;
6205;SDS011;3136;48.788;9.772;2023-02-21T05:25:16;8.53;;;6.10;;
6205;SDS011;3136;48.788;9.772;2023-02-21T05:27:45;7.80;;;5.30;;
6205;SDS011;3136;48.788;9.772;2023-02-21T05:30:12;11.30;;;5.63;;
6205;SDS011;3136;48.788;9.772;2023-02-21T05:32:38;8.33;;;5.37;;
6205;SDS011;3136;48.788;9.772;2023-02-21T05:35:04;12.27;;;5.20;;
6205;SDS011;3136;48.788;9.772;2023-02-21T05:37:31;10.83;;;5.77;;
6205;SDS011;3136;48.788;9.772;2023-02-21T05:39:56;11.97;;;5.63;;
6205;SDS011;3136;48.788;9.772;2023-02-21T05:42:22;12.33;;;5.33;;
6205;SDS011;3136;48.788;9.772;2023-02-21T05:44:47;9.07;;;5.83;;
6205;SDS011;3136;48.788;9.772;2023-02-21T05:47:13;9.00;;;5.60;;
6205;SDS011;3136;48.788;9.772;2023-02-21T05:49:39;8.77;;;5.20;;
6205;SDS011;3136;48.788;9.772;2023-02-21T05:52:06;7.87;;;5.30;;
6205;SDS011;3136;48.788;9.772;2023-02-21T05:54:34;9.37;;;5.83;;
6205;SDS011;3136;48.788;9.772;2023-02-21T05:57:00;8.73;;;5.80;;
6205;SDS011;3136;48.788;9.772;2023-02-21T05:59:25;14.93;;;5.87;;
6205;SDS011;3136;48.788;9.772;2023-02-21T06:01:51;12.40;;;6.33;;
6205;SDS011;3136;48.788;9.772;2023-02-21T06:04:17;11.50;;;6.03;;
6205;SDS011;3136;48.788;9.772;2023-02-21T06:06:43;10.57;;;6.53;;
6205;SDS011;3136;48.788;9.772;2023-02-21T06:09:09;12.73;;;6.97;;
6205;SDS011;3136;48.788;9.772;2023-02-21T06:11:35;13.27;;;7.53;;
6205;SDS011;3136;48.788;9.772;2023-02-21T06:14:03;11.80;;;7.20;;
6205;SDS011;3136;48.788;9.772;2023-02-21T06:16:37;13.03;;;7.03;;
6205;SDS011;3136;48.788;9.772;2023-02-21T06:19:04;9.47;;;6.20;;
6205;SDS011;3136;48.788;9.772;2023-02-21T06:21:30;10.83;;;6.80;;
6205;SDS011;3136;48.788;9.772;2023-02-21T06:23:56;13.03;;;6.40;;
6205;SDS011;3136;48.788;9.772;2023-02-21T06:26:22;12.57;;;6.20;;
6205;SDS011;3136;48.788;9.772;2023-02-21T06:28:47;11.73;;;6.43;;
6205;SDS011;3136;48.788;9.772;2023-02-21T06:31:14;10.10;;;5.30;;
6205;SDS011;3136;48.788;9.772;2023-02-21T06:33:41;9.47;;;5.73;;
6205;SDS011;3136;48.788;9.772;2023-02-21T06:36:07;10.10;;;5.73;;
6205;SDS011;3136;48.788;9.772;2023-02-21T06:38:36;13.30;;;7.93;;
6205;SDS011;3136;48.788;9.772;2023-02-21T06:41:06;12.57;;;7.70;;
6205;SDS011;3136;48.788;9.772;2023-02-21T06:43:32;14.53;;;7.90;;
6205;SDS011;3136;48.788;9.772;2023-02-21T06:46:00;14.00;;;8.77;;
6205;SDS011;3136;48.788;9.772;2023-02-21T06:48:26;14.60;;;8.87;;
6205;SDS011;3136;48.788;9.772;2023-02-21T06:50:51;15.63;;;8.57;;
6205;SDS011;3136;48.788;9.772;2023-02-21T06:53:17;14.03;;;7.80;;
6205;SDS011;3136;48.788;9.772;2023-02-21T06:55:43;14.93;;;7.77;;
6205;SDS011;3136;48.788;9.772;2023-02-21T06:58:08;13.37;;;8.60;;
6205;SDS011;3136;48.788;9.772;2023-02-21T07:00:34;17.57;;;11.57;;
6205;SDS011;3136;48.788;9.772;2023-02-21T07:03:00;19.33;;;10.63;;
6205;SDS011;3136;48.788;9.772;2023-02-21T07:05:26;16.40;;;10.87;;
6205;SDS011;3136;48.788;9.772;2023-02-21T07:07:53;18.17;;;11.03;;
6205;SDS011;3136;48.788;9.772;2023-02-21T07:10:18;15.57;;;10.37;;
6205;SDS011;3136;48.788;9.772;2023-02-21T07:12:44;16.57;;;10.33;;
6205;SDS011;3136;48.788;9.772;2023-02-21T07:15:09;14.13;;;8.43;;
6205;SDS011;3136;48.788;9.772;2023-02-21T07:17:35;12.53;;;7.33;;
6205;SDS011;3136;48.788;9.772;2023-02-21T07:20:01;10.77;;;6.93;;
6205;SDS011;3136;48.788;9.772;2023-02-21T07:22:28;15.87;;;6.53;;
6205;SDS011;3136;48.788;9.772;2023-02-21T07:24:54;11.33;;;7.07;;
6205;SDS011;3136;48.788;9.772;2023-02-21T07:27:20;12.83;;;7.10;;
6205;SDS011;3136;48.788;9.772;2023-02-21T07:29:47;14.90;;;7.27;;
6205;SDS011;3136;48.788;9.772;2023-02-21T07:32:13;12.07;;;7.23;;
6205;SDS011;3136;48.788;9.772;2023-02-21T07:34:39;11.77;;;7.03;;
6205;SDS011;3136;48.788;9.772;2023-02-21T07:37:05;15.57;;;7.40;;
6205;SDS011;3136;48.788;9.772;2023-02-21T07:39:30;10.83;;;6.43;;
6205;SDS011;3136;48.788;9.772;2023-02-21T07:41:56;15.70;;;7.83;;
6205;SDS011;3136;48.788;9.772;2023-02-21T07:44:22;13.57;;;7.80;;
6205;SDS011;3136;48.788;9.772;2023-02-21T07:46:47;17.03;;;8.53;;
6205;SDS011;3136;48.788;9.772;2023-02-21T07:49:13;15.10;;;7.50;;
6205;SDS011;3136;48.788;9.772;2023-02-21T07:51:38;14.63;;;8.23;;
6205;SDS011;3136;48.788;9.772;2023-02-21T07:54:04;14.50;;;7.53;;
6205;SDS011;3136;48.788;9.772;2023-02-21T07:56:29;13.37;;;7.20;;
6205;SDS011;3136;48.788;9.772;2023-02-21T07:58:55;14.17;;;8.13;;
6205;SDS011;3136;48.788;9.772;2023-02-21T08:01:21;15.93;;;6.77;;
6205;SDS011;3136;48.788;9.772;2023-02-21T08:03:48;14.20;;;6.77;;
6205;SDS011;3136;48.788;9.772;2023-02-21T08:06:14;13.07;;;7.17;;
6205;SDS011;3136;48.788;9.772;2023-02-21T08:08:40;13.50;;;7.07;;
6205;SDS011;3136;48.788;9.772;2023-02-21T08:11:05;11.37;;;6.80;;
6205;SDS011;3136;48.788;9.772;2023-02-21T08:13:31;10.37;;;7.03;;
6205;SDS011;3136;48.788;9.772;2023-02-21T08:15:56;15.07;;;7.63;;
6205;SDS011;3136;48.788;9.772;2023-02-21T08:18:22;12.93;;;6.90;;
6205;SDS011;3136;48.788;9.772;2023-02-21T08:20:52;10.23;;;6.60;;
6205;SDS011;3136;48.788;9.772;2023-02-21T08:23:19;17.47;;;7.60;;
6205;SDS011;3136;48.788;9.772;2023-02-21T08:25:45;16.67;;;6.67;;
6205;SDS011;3136;48.788;9.772;2023-02-21T08:28:11;11.73;;;6.57;;
6205;SDS011;3136;48.788;9.772;2023-02-21T08:30:37;15.93;;;7.93;;
6205;SDS011;3136;48.788;9.772;2023-02-21T08:33:03;12.30;;;7.20;;
6205;SDS011;3136;48.788;9.772;2023-02-21T08:35:28;11.73;;;6.93;;
6205;SDS011;3136;48.788;9.772;2023-02-21T08:37:54;12.13;;;6.60;;
6205;SDS011;3136;48.788;9.772;2023-02-21T08:40:27;12.50;;;7.27;;
6205;SDS011;3136;48.788;9.772;2023-02-21T08:42:54;11.20;;;6.90;;
6205;SDS011;3136;48.788;9.772;2023-02-21T08:45:22;11.93;;;7.53;;
6205;SDS011;3136;48.788;9.772;2023-02-21T08:47:49;10.63;;;6.63;;
6205;SDS011;3136;48.788;9.772;2023-02-21T08:50:15;10.83;;;6.30;;
6205;SDS011;3136;48.788;9.772;2023-02-21T08:52:42;13.83;;;6.47;;
6205;SDS011;3136;48.788;9.772;2023-02-21T08:55:09;9.30;;;6.00;;
6205;SDS011;3136;48.788;9.772;2023-02-21T08:57:35;9.07;;;5.50;;
6205;SDS011;3136;48.788;9.772;2023-02-21T09:00:00;9.10;;;5.93;;
6205;SDS011;3136;48.788;9.772;2023-02-21T09:02:26;8.40;;;5.73;;
6205;SDS011;3136;48.788;9.772;2023-02-21T09:04:55;9.77;;;5.33;;
6205;SDS011;3136;48.788;9.772;2023-02-21T09:07:21;11.83;;;5.30;;
6205;SDS011;3136;48.788;9.772;2023-02-21T09:09:47;8.10;;;5.43;;
6205;SDS011;3136;48.788;9.772;2023-02-21T09:12:13;9.27;;;4.80;;
6205;SDS011;3136;48.788;9.772;2023-02-21T09:14:39;10.20;;;5.10;;
6205;SDS011;3136;48.788;9.772;2023-02-21T09:17:07;9.63;;;4.67;;
6205;SDS011;3136;48.788;9.772;2023-02-21T09:19:35;8.37;;;4.40;;
6205;SDS011;3136;48.788;9.772;2023-02-21T09:22:00;9.20;;;5.07;;
6205;SDS011;3136;48.788;9.772;2023-02-21T09:24:28;7.43;;;4.63;;
6205;SDS011;3136;48.788;9.772;2023-02-21T09:26:54;5.90;;;4.90;;
6205;SDS011;3136;48.788;9.772;2023-02-21T09:29:27;10.13;;;4.20;;
6205;SDS011;3136;48.788;9.772;2023-02-21T09:31:53;6.33;;;4.60;;
6205;SDS011;3136;48.788;9.772;2023-02-21T09:34:19;6.30;;;4.07;;
6205;SDS011;3136;48.788;9.772;2023-02-21T09:36:46;12.13;;;4.10;;
6205;SDS011;3136;48.788;9.772;2023-02-21T09:39:12;10.83;;;4.33;;
6205;SDS011;3136;48.788;9.772;2023-02-21T09:41:39;8.53;;;4.07;;
6205;SDS011;3136;48.788;9.772;2023-02-21T09:44:09;4.57;;;3.20;;
6205;SDS011;3136;48.788;9.772;2023-02-21T09:46:46;5.83;;;3.00;;
6205;SDS011;3136;48.788;9.772;2023-02-21T09:49:20;5.07;;;2.73;;
6205;SDS011;3136;48.788;9.772;2023-02-21T09:51:49;4.47;;;2.37;;
6205;SDS011;3136;48.788;9.772;2023-02-21T09:54:18;4.10;;;2.30;;
6205;SDS011;3136;48.788;9.772;2023-02-21T09:56:50;7.47;;;2.43;;
6205;SDS011;3136;48.788;9.772;2023-02-21T09:59:15;4.57;;;2.07;;
6205;SDS011;3136;48.788;9.772;2023-02-21T10:04:54;3.30;;;1.90;;
6205;SDS011;3136;48.788;9.772;2023-02-21T10:07:28;4.73;;;2.30;;
6205;SDS011;3136;48.788;9.772;2023-02-21T10:10:01;3.80;;;2.13;;
6205;SDS011;3136;48.788;9.772;2023-02-21T10:12:45;3.37;;;2.10;;
6205;SDS011;3136;48.788;9.772;2023-02-21T10:18:18;2.63;;;1.90;;
6205;SDS011;3136;48.788;9.772;2023-02-21T10:20:59;3.40;;;2.07;;
6205;SDS011;3136;48.788;9.772;2023-02-21T10:26:10;6.33;;;1.87;;
6205;SDS011;3136;48.788;9.772;2023-02-21T10:28:42;4.57;;;2.20;;
6205;SDS011;3136;48.788;9.772;2023-02-21T10:31:10;4.70;;;1.90;;
6205;SDS011;3136;48.788;9.772;2023-02-21T10:33:40;3.57;;;1.60;;
6205;SDS011;3136;48.788;9.772;2023-02-21T10:36:14;4.60;;;1.77;;
6205;SDS011;3136;48.788;9.772;2023-02-21T10:38:45;2.90;;;1.73;;
6205;SDS011;3136;48.788;9.772;2023-02-21T10:41:30;2.17;;;1.73;;
6205;SDS011;3136;48.788;9.772;2023-02-21T10:44:06;2.50;;;1.60;;
6205;SDS011;3136;48.788;9.772;2023-02-21T10:47:07;2.10;;;1.60;;
6205;SDS011;3136;48.788;9.772;2023-02-21T10:49:45;2.70;;;1.50;;
6205;SDS011;3136;48.788;9.772;2023-02-21T10:52:27;2.60;;;1.67;;
6205;SDS011;3136;48.788;9.772;2023-02-21T10:55:02;3.83;;;1.83;;
6205;SDS011;3136;48.788;9.772;2023-02-21T10:57:29;2.43;;;1.60;;
6205;SDS011;3136;48.788;9.772;2023-02-21T10:59:57;4.27;;;1.80;;
6205;SDS011;3136;48.788;9.772;2023-02-21T11:02:35;2.73;;;1.67;;
6205;SDS011;3136;48.788;9.772;2023-02-21T11:05:22;2.00;;;1.60;;
6205;SDS011;3136;48.788;9.772;2023-02-21T11:07:55;2.13;;;1.57;;
6205;SDS011;3136;48.788;9.772;2023-02-21T11:10:27;2.97;;;1.30;;
6205;SDS011;3136;48.788;9.772;2023-02-21T11:13:16;2.67;;;1.43;;
6205;SDS011;3136;48.788;9.772;2023-02-21T11:15:45;3.10;;;1.50;;
6205;SDS011;3136;48.788;9.772;2023-02-21T11:20:39;2.17;;;1.63;;
6205;SDS011;3136;48.788;9.772;2023-02-21T11:23:16;3.43;;;1.53;;
6205;SDS011;3136;48.788;9.772;2023-02-21T11:25:47;5.03;;;1.30;;
6205;SDS011;3136;48.788;9.772;2023-02-21T11:28:17;3.17;;;1.50;;
6205;SDS011;3136;48.788;9.772;2023-02-21T11:33:25;5.33;;;1.40;;
6205;SDS011;3136;48.788;9.772;2023-02-21T11:35:53;1.50;;;1.13;;
6205;SDS011;3136;48.788;9.772;2023-02-21T11:38:39;2.03;;;1.20;;
6205;SDS011;3136;48.788;9.772;2023-02-21T11:43:51;2.20;;;1.33;;
6205;SDS011;3136;48.788;9.772;2023-02-21T11:51:42;2.53;;;1.43;;
6205;SDS011;3136;48.788;9.772;2023-02-21T11:54:08;2.40;;;1.10;;
6205;SDS011;3136;48.788;9.772;2023-02-21T12:04:26;1.57;;;1.07;;
6205;SDS011;3136;48.788;9.772;2023-02-21T12:10:00;2.97;;;1.30;;
6205;SDS011;3136;48.788;9.772;2023-02-21T12:18:16;1.23;;;0.90;;
6205;SDS011;3136;48.788;9.772;2023-02-21T12:23:31;1.40;;;0.80;;
6205;SDS011;3136;48.788;9.772;2023-02-21T12:34:41;1.33;;;1.08;;
6205;SDS011;3136;48.788;9.772;2023-02-21T12:37:25;1.10;;;1.00;;
6205;SDS011;3136;48.788;9.772;2023-02-21T12:40:33;1.90;;;1.08;;
6205;SDS011;3136;48.788;9.772;2023-02-21T12:51:17;0.77;;;0.70;;
6205;SDS011;3136;48.788;9.772;2023-02-21T12:53:50;1.50;;;1.02;;
6205;SDS011;3136;48.788;9.772;2023-02-21T12:56:26;1.17;;;1.00;;
6205;SDS011;3136;48.788;9.772;2023-02-21T12:59:00;1.88;;;1.20;;
6205;SDS011;3136;48.788;9.772;2023-02-21T13:01:50;1.65;;;1.10;;
6205;SDS011;3136;48.788;9.772;2023-02-21T13:04:27;1.25;;;1.08;;
6205;SDS011;3136;48.788;9.772;2023-02-21T13:07:10;2.33;;;1.10;;
6205;SDS011;3136;48.788;9.772;2023-02-21T13:09:58;2.50;;;0.90;;
6205;SDS011;3136;48.788;9.772;2023-02-21T13:12:46;1.67;;;0.98;;
6205;SDS011;3136;48.788;9.772;2023-02-21T13:15:21;1.52;;;0.88;;
6205;SDS011;3136;48.788;9.772;2023-02-21T13:17:51;1.85;;;1.17;;
6205;SDS011;3136;48.788;9.772;2023-02-21T13:20:26;2.08;;;1.10;;
6205;SDS011;3136;48.788;9.772;2023-02-21T13:22:56;1.10;;;0.85;;
6205;SDS011;3136;48.788;9.772;2023-02-21T13:28:33;1.50;;;1.00;;
6205;SDS011;3136;48.788;9.772;2023-02-21T13:31:03;1.52;;;1.10;;
6205;SDS011;3136;48.788;9.772;2023-02-21T13:33:35;2.53;;;1.00;;
6205;SDS011;3136;48.788;9.772;2023-02-21T13:36:27;0.95;;;0.90;;
6205;SDS011;3136;48.788;9.772;2023-02-21T13:41:43;1.30;;;1.00;;
6205;SDS011;3136;48.788;9.772;2023-02-21T13:47:00;2.25;;;1.10;;
6205;SDS011;3136;48.788;9.772;2023-02-21T13:49:45;4.18;;;1.10;;
6205;SDS011;3136;48.788;9.772;2023-02-21T13:57:44;1.00;;;0.90;;
6205;SDS011;3136;48.788;9.772;2023-02-21T14:13:33;4.15;;;0.88;;
6205;SDS011;3136;48.788;9.772;2023-02-21T14:23:48;0.95;;;0.82;;
6205;SDS011;3136;48.788;9.772;2023-02-21T14:26:33;1.80;;;1.00;;
6205;SDS011;3136;48.788;9.772;2023-02-21T14:29:37;1.13;;;0.80;;
6205;SDS011;3136;48.788;9.772;2023-02-21T14:39:57;1.60;;;0.80;;
6205;SDS011;3136;48.788;9.772;2023-02-21T14:45:53;0.70;;;0.70;;
6205;SDS011;3136;48.788;9.772;2023-02-21T14:48:18;2.50;;;1.20;;
6205;SDS011;3136;48.788;9.772;2023-02-21T15:02:53;4.00;;;1.37;;
6205;SDS011;3136;48.788;9.772;2023-02-21T15:05:27;2.13;;;0.80;;
6205;SDS011;3136;48.788;9.772;2023-02-21T15:08:03;4.57;;;1.70;;
6205;SDS011;3136;48.788;9.772;2023-02-21T15:10:39;4.07;;;1.20;;
6205;SDS011;3136;48.788;9.772;2023-02-21T15:13:06;3.10;;;0.80;;
6205;SDS011;3136;48.788;9.772;2023-02-21T15:16:11;5.03;;;0.90;;
6205;SDS011;3136;48.788;9.772;2023-02-21T15:18:37;4.33;;;1.30;;
6205;SDS011;3136;48.788;9.772;2023-02-21T15:23:39;3.33;;;1.10;;
6205;SDS011;3136;48.788;9.772;2023-02-21T15:31:44;2.70;;;1.03;;
6205;SDS011;3136;48.788;9.772;2023-02-21T15:34:15;3.30;;;1.70;;
6205;SDS011;3136;48.788;9.772;2023-02-21T15:36:43;5.60;;;2.40;;
6205;SDS011;3136;48.788;9.772;2023-02-21T15:39:21;2.37;;;1.70;;
6205;SDS011;3136;48.788;9.772;2023-02-21T15:41:52;3.63;;;1.40;;
6205;SDS011;3136;48.788;9.772;2023-02-21T15:44:25;3.40;;;2.10;;
6205;SDS011;3136;48.788;9.772;2023-02-21T15:49:30;4.83;;;2.30;;
6205;SDS011;3136;48.788;9.772;2023-02-21T15:52:01;4.07;;;2.60;;
6205;SDS011;3136;48.788;9.772;2023-02-21T15:54:29;4.57;;;2.50;;
6205;SDS011;3136;48.788;9.772;2023-02-21T15:59:35;4.70;;;1.43;;
6205;SDS011;3136;48.788;9.772;2023-02-21T16:04:40;4.60;;;1.27;;
6205;SDS011;3136;48.788;9.772;2023-02-21T16:07:18;3.90;;;2.20;;
6205;SDS011;3136;48.788;9.772;2023-02-21T16:10:00;5.50;;;3.53;;
6205;SDS011;3136;48.788;9.772;2023-02-21T16:12:38;5.60;;;2.80;;
6205;SDS011;3136;48.788;9.772;2023-02-21T16:17:53;1.50;;;0.93;;
6205;SDS011;3136;48.788;9.772;2023-02-21T16:20:29;3.27;;;1.00;;
6205;SDS011;3136;48.788;9.772;2023-02-21T16:28:40;2.20;;;1.10;;
6205;SDS011;3136;48.788;9.772;2023-02-21T16:31:07;1.70;;;0.93;;
6205;SDS011;3136;48.788;9.772;2023-02-21T16:33:38;2.93;;;1.70;;
6205;SDS011;3136;48.788;9.772;2023-02-21T16:36:05;2.07;;;1.20;;
6205;SDS011;3136;48.788;9.772;2023-02-21T16:38:33;3.67;;;1.23;;
6205;SDS011;3136;48.788;9.772;2023-02-21T16:40:58;2.70;;;1.20;;
6205;SDS011;3136;48.788;9.772;2023-02-21T16:43:25;2.50;;;1.30;;
6205;SDS011;3136;48.788;9.772;2023-02-21T16:45:54;1.77;;;1.00;;
6205;SDS011;3136;48.788;9.772;2023-02-21T16:48:22;1.10;;;1.00;;
6205;SDS011;3136;48.788;9.772;2023-02-21T16:50:52;4.20;;;1.00;;
6205;SDS011;3136;48.788;9.772;2023-02-21T16:53:19;3.07;;;1.40;;
6205;SDS011;3136;48.788;9.772;2023-02-21T16:55:45;4.77;;;1.03;;
6205;SDS011;3136;48.788;9.772;2023-02-21T16:58:28;1.57;;;1.00;;
6205;SDS011;3136;48.788;9.772;2023-02-21T17:01:00;2.57;;;1.30;;
6205;SDS011;3136;48.788;9.772;2023-02-21T17:03:28;4.33;;;1.17;;
6205;SDS011;3136;48.788;9.772;2023-02-21T17:05:54;3.27;;;2.00;;
6205;SDS011;3136;48.788;9.772;2023-02-21T17:08:21;4.73;;;1.67;;
6205;SDS011;3136;48.788;9.772;2023-02-21T17:10:48;0.90;;;0.90;;
6205;SDS011;3136;48.788;9.772;2023-02-21T17:13:13;8.60;;;1.20;;
6205;SDS011;3136;48.788;9.772;2023-02-21T17:15:39;3.57;;;1.00;;
6205;SDS011;3136;48.788;9.772;2023-02-21T17:18:04;4.27;;;1.53;;
6205;SDS011;3136;48.788;9.772;2023-02-21T17:20:30;5.30;;;1.67;;
6205;SDS011;3136;48.788;9.772;2023-02-21T17:22:56;3.60;;;1.70;;
6205;SDS011;3136;48.788;9.772;2023-02-21T17:25:25;1.20;;;1.10;;
6205;SDS011;3136;48.788;9.772;2023-02-21T17:27:51;3.17;;;1.30;;
6205;SDS011;3136;48.788;9.772;2023-02-21T17:30:18;2.90;;;1.47;;
6205;SDS011;3136;48.788;9.772;2023-02-21T17:32:44;2.43;;;1.40;;
6205;SDS011;3136;48.788;9.772;2023-02-21T17:35:13;1.60;;;1.27;;
6205;SDS011;3136;48.788;9.772;2023-02-21T17:37:40;3.30;;;1.40;;
6205;SDS011;3136;48.788;9.772;2023-02-21T17:40:07;3.57;;;2.20;;
6205;SDS011;3136;48.788;9.772;2023-02-21T17:42:34;3.37;;;1.70;;
6205;SDS011;3136;48.788;9.772;2023-02-21T17:44:59;2.17;;;1.30;;
6205;SDS011;3136;48.788;9.772;2023-02-21T17:47:26;4.00;;;1.53;;
6205;SDS011;3136;48.788;9.772;2023-02-21T17:49:52;2.93;;;1.60;;
6205;SDS011;3136;48.788;9.772;2023-02-21T17:52:18;2.20;;;1.60;;
6205;SDS011;3136;48.788;9.772;2023-02-21T17:54:45;2.10;;;1.70;;
6205;SDS011;3136;48.788;9.772;2023-02-21T17:57:10;5.07;;;2.40;;
6205;SDS011;3136;48.788;9.772;2023-02-21T17:59:36;5.70;;;3.10;;
6205;SDS011;3136;48.788;9.772;2023-02-21T18:02:03;4.00;;;3.03;;
6205;SDS011;3136;48.788;9.772;2023-02-21T18:04:29;3.43;;;2.30;;
6205;SDS011;3136;48.788;9.772;2023-02-21T18:06:55;3.80;;;1.93;;
6205;SDS011;3136;48.788;9.772;2023-02-21T18:09:21;5.77;;;2.37;;
6205;SDS011;3136;48.788;9.772;2023-02-21T18:11:48;7.83;;;2.57;;
6205;SDS011;3136;48.788;9.772;2023-02-21T18:14:15;4.80;;;2.43;;
6205;SDS011;3136;48.788;9.772;2023-02-21T18:16:41;4.40;;;2.00;;
6205;SDS011;3136;48.788;9.772;2023-02-21T18:19:07;6.93;;;2.40;;
6205;SDS011;3136;48.788;9.772;2023-02-21T18:21:33;3.93;;;2.40;;
6205;SDS011;3136;48.788;9.772;2023-02-21T18:24:00;8.00;;;2.50;;